Terminal Aerodrome Forecast
Issued by NWS

Home | Current Version | Previous Version | Text Only | Print | Product List | Glossary Off
Versions: 1 2 3 4 5 6 7 8 9 10 11 12 13

000
FTUS43 KOAX 220520
TAFCDR
TAF
KCDR 220520Z 2206/2306 24005KT P6SM SKC
     FM221200 24009KT P6SM SCT250
     FM221600 26012KT P6SM BKN200
     FM221900 25015G25KT P6SM BKN200=

USA.gov is the U.S. government's official web portal to all federal, state and local government web resources and services.